Time;durP1;ratioP1;P1;durP2;ratioP2;P2;SDS_P1;SDS_P2;PMS_P1;PMS_P2;Temp;Humidity;BMP_temperature;BMP_pressure;BME280_temperature;BME280_humidity;BME280_pressure;Samples;Min_cycle;Max_cycle;Signal;HPM_P1;HPM_P2
2022/07/05 00:01:57;;;;;;;;;;;;;;;28.54;41.66;100788.90;104885;1303;61458;-81
2022/07/05 00:04:23;;;;;;;;;;;;;;;28.54;41.50;100790.16;104868;1306;61267;-81
2022/07/05 00:09:32;;;;;;;;;;;;;;;28.54;41.56;100787.23;104902;1306;73767;-81
2022/07/05 00:11:58;;;;;;;;;;;;;;;28.54;41.54;100783.98;104899;1303;61416;-81
2022/07/05 00:14:23;;;;;;;;;;;;;;;28.54;41.55;100784.02;105050;1302;61229;-81
2022/07/05 00:16:49;;;;;;;;;;;;;;;28.54;41.67;100782.58;105245;1303;61728;-81
2022/07/05 00:19:15;;;;;;;;;;;;;;;28.54;41.67;100784.92;105198;1303;61367;-81
2022/07/05 00:21:41;;;;;;;;;;;;;;;28.53;41.46;100782.80;105184;1303;72794;-81
2022/07/05 00:24:06;;;;;;;;;;;;;;;28.54;41.73;100781.50;105103;1301;61233;-82
2022/07/05 00:26:31;;;;;;;;;;;;;;;28.53;41.54;100780.08;105180;1302;61332;-81
2022/07/05 00:28:57;;;;;;;;;;;;;;;28.54;41.76;100779.34;104931;1302;61278;-81
2022/07/05 00:31:22;;;;;;;;;;;;;;;28.53;41.61;100775.91;105308;1301;61230;-82
2022/07/05 00:33:48;;;;;;;;;;;;;;;28.53;41.76;100770.73;105148;1303;61368;-81
2022/07/05 00:36:13;;;;;;;;;;;;;;;28.53;41.98;100768.91;105132;1301;61304;-81
2022/07/05 00:38:39;;;;;;;;;;;;;;;28.53;41.85;100766.38;105279;1302;61257;-81
2022/07/05 00:41:04;;;;;;;;;;;;;;;28.52;41.75;100766.22;105157;1303;61203;-82
2022/07/05 00:43:30;;;;;;;;;;;;;;;28.52;41.80;100765.50;105212;1303;61285;-81
2022/07/05 00:45:55;;;;;;;;;;;;;;;28.52;41.71;100761.91;105168;1302;61278;-81
2022/07/05 00:48:20;;;;;;;;;;;;;;;28.52;41.64;100758.27;105121;1303;61367;-81
2022/07/05 00:50:47;;;;;;;;;;;;;;;28.53;41.62;100753.92;105252;1301;61262;-81
2022/07/05 00:53:12;;;;;;;;;;;;;;;28.52;41.81;100755.94;105138;1301;61266;-81
2022/07/05 00:55:37;;;;;;;;;;;;;;;28.52;41.68;100757.19;105277;1301;61438;-81
2022/07/05 00:58:03;;;;;;;;;;;;;;;28.52;41.59;100750.73;105163;1302;73896;-81
2022/07/05 01:00:29;;;;;;;;;;;;;;;28.52;41.74;100748.70;104948;1302;61153;-81
2022/07/05 01:02:55;;;;;;;;;;;;;;;28.52;41.71;100748.39;105270;1302;61342;-81
2022/07/05 01:05:21;;;;;;;;;;;;;;;28.52;41.92;100749.64;104991;1303;61281;-81
2022/07/05 01:07:47;;;;;;;;;;;;;;;28.52;41.88;100748.59;105161;1303;61294;-81
2022/07/05 01:10:12;;;;;;;;;;;;;;;28.52;41.82;100744.92;105200;1303;61284;-81
2022/07/05 01:12:39;;;;;;;;;;;;;;;28.51;41.82;100741.52;105294;1301;61411;-81
2022/07/05 01:15:05;;;;;;;;;;;;;;;28.52;41.88;100740.59;105206;1303;61150;-81
2022/07/05 01:17:30;;;;;;;;;;;;;;;28.52;41.96;100739.15;105160;1302;61268;-81
2022/07/05 01:19:56;;;;;;;;;;;;;;;28.51;42.21;100737.77;105188;1302;61319;-81
2022/07/05 01:22:21;;;;;;;;;;;;;;;28.51;41.88;100734.67;105124;1301;61377;-81
2022/07/05 01:24:47;;;;;;;;;;;;;;;28.51;41.85;100735.80;105124;1303;61307;-81
2022/07/05 01:27:12;;;;;;;;;;;;;;;28.51;41.72;100736.01;105188;1302;61997;-82
2022/07/05 01:29:39;;;;;;;;;;;;;;;28.51;41.98;100740.15;105160;1302;61396;-82
2022/07/05 01:32:04;;;;;;;;;;;;;;;28.51;41.78;100736.01;105183;1302;61399;-81
2022/07/05 01:34:30;;;;;;;;;;;;;;;28.51;42.00;100736.85;104936;1303;61287;-81
2022/07/05 01:36:55;;;;;;;;;;;;;;;28.51;41.89;100736.75;105257;1301;61256;-81
2022/07/05 01:39:21;;;;;;;;;;;;;;;28.51;42.00;100736.04;105186;1303;61252;-82
2022/07/05 01:41:47;;;;;;;;;;;;;;;28.51;41.88;100735.13;105251;1302;61925;-83
2022/07/05 01:44:14;;;;;;;;;;;;;;;28.51;42.09;100740.89;105159;1303;61281;-82
2022/07/05 01:46:39;;;;;;;;;;;;;;;28.50;42.08;100742.20;105206;1302;61170;-82
2022/07/05 01:49:06;;;;;;;;;;;;;;;28.50;41.81;100742.38;105231;1303;61307;-82
2022/07/05 01:51:38;;;;;;;;;;;;;;;28.50;41.96;100744.55;105167;1303;61281;-82
2022/07/05 01:54:03;;;;;;;;;;;;;;;28.50;41.91;100748.55;105095;1303;73910;-82
2022/07/05 01:56:29;;;;;;;;;;;;;;;28.50;41.95;100750.35;105262;1303;61367;-82
2022/07/05 01:58:54;;;;;;;;;;;;;;;28.50;42.02;100756.48;105190;1301;61383;-82
2022/07/05 02:01:33;;;;;;;;;;;;;;;28.50;42.06;100756.36;105157;1302;61653;-82
2022/07/05 02:03:58;;;;;;;;;;;;;;;28.50;42.08;100755.80;105162;1301;75150;-82
2022/07/05 02:06:24;;;;;;;;;;;;;;;28.50;42.01;100755.09;105255;1302;61286;-82
2022/07/05 02:08:49;;;;;;;;;;;;;;;28.50;41.93;100751.98;105260;1302;61364;-82
2022/07/05 02:11:15;;;;;;;;;;;;;;;28.50;42.25;100752.76;105248;1302;61259;-82
2022/07/05 02:13:40;;;;;;;;;;;;;;;28.50;42.19;100755.67;105295;1301;61272;-82
2022/07/05 02:16:06;;;;;;;;;;;;;;;28.50;41.89;100756.38;105133;1302;73150;-82
2022/07/05 02:18:32;;;;;;;;;;;;;;;28.49;42.28;100758.21;105213;1302;61365;-82
2022/07/05 02:20:57;;;;;;;;;;;;;;;28.49;42.10;100751.15;105274;1301;61373;-82
2022/07/05 02:23:23;;;;;;;;;;;;;;;28.49;41.97;100752.08;105274;1300;61282;-82
2022/07/05 02:25:48;;;;;;;;;;;;;;;28.49;42.02;100754.79;105272;1302;60507;-82
2022/07/05 02:28:13;;;;;;;;;;;;;;;28.49;42.24;100756.95;105144;1303;72787;-82
2022/07/05 02:30:39;;;;;;;;;;;;;;;28.49;42.06;100757.40;104916;1303;61405;-82
2022/07/05 02:33:04;;;;;;;;;;;;;;;28.49;42.29;100760.80;105298;1301;61285;-82
2022/07/05 02:35:31;;;;;;;;;;;;;;;28.49;42.23;100762.66;105212;1302;61242;-82
2022/07/05 02:37:56;;;;;;;;;;;;;;;28.49;41.94;100767.73;105223;1301;61295;-82
2022/07/05 02:40:22;;;;;;;;;;;;;;;28.48;42.17;100769.38;104933;1303;61317;-82
2022/07/05 02:42:47;;;;;;;;;;;;;;;28.48;42.19;100772.09;105131;1301;77136;-82
2022/07/05 02:45:13;;;;;;;;;;;;;;;28.49;42.26;100773.70;105143;1301;61251;-82
2022/07/05 02:47:38;;;;;;;;;;;;;;;28.49;42.38;100768.63;105250;1301;61258;-82
2022/07/05 02:50:05;;;;;;;;;;;;;;;28.48;42.15;100766.13;105240;1303;61256;-82
2022/07/05 02:52:30;;;;;;;;;;;;;;;28.48;42.32;100765.95;104905;1303;61285;-82
2022/07/05 02:54:56;;;;;;;;;;;;;;;28.48;42.40;100765.58;105260;1302;61406;-82
2022/07/05 02:57:21;;;;;;;;;;;;;;;28.48;42.27;100768.48;105147;1303;61988;-82
2022/07/05 02:59:47;;;;;;;;;;;;;;;28.48;42.32;100771.79;105164;1302;61695;-82
2022/07/05 03:02:12;;;;;;;;;;;;;;;28.49;42.16;100771.35;105274;1301;61294;-82
2022/07/05 03:04:38;;;;;;;;;;;;;;;28.49;42.30;100772.23;105129;1303;61389;-82
2022/07/05 03:07:03;;;;;;;;;;;;;;;28.48;42.33;100769.92;105155;1302;61268;-82
2022/07/05 03:09:29;;;;;;;;;;;;;;;28.48;42.18;100770.84;105254;1301;61256;-82
2022/07/05 03:11:54;;;;;;;;;;;;;;;28.48;42.40;100766.66;105248;1302;61279;-82
2022/07/05 03:14:20;;;;;;;;;;;;;;;28.48;42.57;100765.05;105153;1302;61713;-82
2022/07/05 03:16:45;;;;;;;;;;;;;;;28.48;42.16;100762.66;105199;1301;61227;-82
2022/07/05 03:19:11;;;;;;;;;;;;;;;28.49;42.26;100768.09;105184;1303;61362;-82
2022/07/05 03:21:36;;;;;;;;;;;;;;;28.48;42.31;100768.30;105159;1302;61362;-82
2022/07/05 03:24:02;;;;;;;;;;;;;;;28.48;42.43;100767.41;105276;1302;61304;-82
2022/07/05 03:26:27;;;;;;;;;;;;;;;28.48;42.31;100760.21;105218;1303;61335;-82
2022/07/05 03:28:53;;;;;;;;;;;;;;;28.47;42.25;100758.46;105166;1302;61234;-82
2022/07/05 03:31:18;;;;;;;;;;;;;;;28.46;42.37;100756.58;105223;1303;62001;-82
2022/07/05 03:33:44;;;;;;;;;;;;;;;28.46;42.30;100754.98;105270;1301;61306;-82
2022/07/05 03:36:10;;;;;;;;;;;;;;;28.46;42.33;100761.11;105135;1303;61269;-82
2022/07/05 03:38:36;;;;;;;;;;;;;;;28.45;42.40;100761.59;105209;1303;61287;-82
2022/07/05 03:41:02;;;;;;;;;;;;;;;28.44;42.20;100761.70;105165;1302;61223;-82
2022/07/05 03:43:28;;;;;;;;;;;;;;;28.42;42.28;100765.64;105184;1303;61258;-82
2022/07/05 03:45:54;;;;;;;;;;;;;;;28.42;42.12;100772.56;105134;1303;61126;-82
2022/07/05 03:48:20;;;;;;;;;;;;;;;28.41;42.11;100774.32;105187;1302;61304;-82
2022/07/05 03:50:46;;;;;;;;;;;;;;;28.40;42.05;100774.22;104892;1303;61242;-82
2022/07/05 03:53:11;;;;;;;;;;;;;;;28.39;42.14;100777.54;105250;1303;61228;-82
2022/07/05 03:55:37;;;;;;;;;;;;;;;28.38;42.17;100781.59;105145;1303;61403;-82
2022/07/05 03:58:02;;;;;;;;;;;;;;;28.38;42.28;100784.69;105129;1303;61282;-82
2022/07/05 04:00:28;;;;;;;;;;;;;;;28.38;42.11;100788.85;105185;1302;61246;-82
2022/07/05 04:02:53;;;;;;;;;;;;;;;28.38;41.90;100784.96;105124;1302;61681;-83
2022/07/05 04:05:19;;;;;;;;;;;;;;;28.36;41.92;100784.55;105189;1301;61276;-82
2022/07/05 04:07:51;;;;;;;;;;;;;;;28.35;41.99;100783.36;105215;1301;61376;-82
2022/07/05 04:10:17;;;;;;;;;;;;;;;28.35;41.75;100785.20;105147;1303;61175;-82
2022/07/05 04:12:42;;;;;;;;;;;;;;;28.34;41.85;100788.42;105113;1302;62467;-81
2022/07/05 04:15:08;;;;;;;;;;;;;;;28.33;41.88;100790.12;105143;1302;61256;-82
2022/07/05 04:17:34;;;;;;;;;;;;;;;28.33;41.93;100790.11;105226;1302;61233;-82
2022/07/05 04:19:59;;;;;;;;;;;;;;;28.33;41.77;100787.05;105257;1303;61253;-81
2022/07/05 04:22:25;;;;;;;;;;;;;;;28.33;41.81;100788.37;105137;1303;61269;-82
2022/07/05 04:27:35;;;;;;;;;;;;;;;28.33;41.69;100792.52;105214;1303;74690;-81
2022/07/05 04:30:00;;;;;;;;;;;;;;;28.33;41.66;100787.23;105138;1300;61339;-81
2022/07/05 04:32:26;;;;;;;;;;;;;;;28.33;41.68;100785.65;105132;1303;61348;-81
2022/07/05 04:34:52;;;;;;;;;;;;;;;28.32;41.37;100786.44;105065;1302;61200;-82
2022/07/05 04:37:17;;;;;;;;;;;;;;;28.31;41.66;100795.83;104776;1302;61265;-82
2022/07/05 04:39:43;;;;;;;;;;;;;;;28.29;41.27;100801.27;104771;1302;61226;-82
2022/07/05 04:42:08;;;;;;;;;;;;;;;28.28;41.18;100800.94;105029;1302;61288;-82
2022/07/05 04:44:34;;;;;;;;;;;;;;;28.28;41.31;100801.17;104795;1301;61425;-82
2022/07/05 04:46:59;;;;;;;;;;;;;;;28.26;41.22;100799.30;104818;1302;61333;-82
2022/07/05 04:49:24;;;;;;;;;;;;;;;28.28;41.32;100800.09;105095;1302;61289;-82
2022/07/05 04:51:50;;;;;;;;;;;;;;;28.28;40.82;100802.39;104856;1302;61313;-82
2022/07/05 04:54:15;;;;;;;;;;;;;;;28.28;41.04;100805.27;104876;1302;61275;-82
2022/07/05 04:56:41;;;;;;;;;;;;;;;28.28;41.11;100806.77;104868;1302;61276;-82
2022/07/05 04:59:07;;;;;;;;;;;;;;;28.28;40.85;100804.79;104827;1302;61265;-82
2022/07/05 05:01:32;;;;;;;;;;;;;;;28.28;40.73;100809.28;104854;1302;61271;-81
2022/07/05 05:03:58;;;;;;;;;;;;;;;28.29;40.53;100810.47;105151;1302;61266;-81
2022/07/05 05:06:23;;;;;;;;;;;;;;;28.29;40.84;100807.95;104981;1302;61247;-82
2022/07/05 05:08:48;;;;;;;;;;;;;;;28.30;40.58;100806.61;104941;1302;61348;-82
2022/07/05 05:11:14;;;;;;;;;;;;;;;28.30;40.59;100801.52;104904;1302;61292;-82
2022/07/05 05:13:39;;;;;;;;;;;;;;;28.29;40.62;100799.80;104940;1302;61429;-82
2022/07/05 05:16:05;;;;;;;;;;;;;;;28.29;40.55;100805.92;104938;1302;61278;-82
2022/07/05 05:18:31;;;;;;;;;;;;;;;28.30;40.44;100804.03;104976;1302;61283;-82
2022/07/05 05:20:56;;;;;;;;;;;;;;;28.30;40.43;100802.71;105032;1302;61275;-82
2022/07/05 05:23:22;;;;;;;;;;;;;;;28.31;40.41;100803.74;104956;1302;61393;-82
2022/07/05 05:25:48;;;;;;;;;;;;;;;28.32;40.58;100806.21;105140;1303;61254;-82
2022/07/05 05:28:13;;;;;;;;;;;;;;;28.33;40.49;100810.98;104975;1302;61273;-82
2022/07/05 05:30:38;;;;;;;;;;;;;;;28.34;40.30;100809.23;104987;1302;61244;-82
2022/07/05 05:33:04;;;;;;;;;;;;;;;28.34;40.24;100806.88;104963;1302;61320;-81
2022/07/05 05:35:30;;;;;;;;;;;;;;;28.34;39.96;100806.48;104914;1302;61281;-81
2022/07/05 05:37:56;;;;;;;;;;;;;;;28.35;40.32;100806.61;104984;1302;61336;-82
2022/07/05 05:40:22;;;;;;;;;;;;;;;28.35;40.19;100803.70;104957;1303;61105;-82
2022/07/05 05:42:48;;;;;;;;;;;;;;;28.36;40.31;100803.56;104990;1302;61288;-82
2022/07/05 05:45:13;;;;;;;;;;;;;;;28.36;40.06;100810.09;104953;1302;61435;-82
2022/07/05 05:47:57;;;;;;;;;;;;;;;28.36;40.10;100808.96;105044;1301;61258;-82
2022/07/05 05:50:27;;;;;;;;;;;;;;;28.37;40.48;100816.00;105163;1302;74803;-82
2022/07/05 05:52:53;;;;;;;;;;;;;;;28.37;40.11;100811.25;105146;1302;60078;-82
2022/07/05 05:55:18;;;;;;;;;;;;;;;28.37;40.22;100814.19;105169;1300;61387;-82
2022/07/05 05:57:44;;;;;;;;;;;;;;;28.37;39.97;100821.80;105149;1302;61233;-82
2022/07/05 06:00:09;;;;;;;;;;;;;;;28.36;40.16;100818.03;104965;1303;61271;-82
2022/07/05 06:02:35;;;;;;;;;;;;;;;28.36;40.11;100814.94;105257;1300;61396;-82
2022/07/05 06:05:00;;;;;;;;;;;;;;;28.36;40.14;100817.29;105330;1302;61109;-82
2022/07/05 06:07:26;;;;;;;;;;;;;;;28.37;40.21;100815.63;105399;1302;61782;-82
2022/07/05 06:09:51;;;;;;;;;;;;;;;28.38;40.04;100818.25;105542;1300;61290;-83
2022/07/05 06:12:16;;;;;;;;;;;;;;;28.38;40.13;100817.49;105526;1302;61356;-83
2022/07/05 06:14:42;;;;;;;;;;;;;;;28.39;40.04;100819.01;105600;1302;61278;-82
2022/07/05 06:17:07;;;;;;;;;;;;;;;28.39;40.13;100817.68;105454;1301;59608;-82
2022/07/05 06:19:33;;;;;;;;;;;;;;;28.40;39.99;100815.79;105347;1302;61262;-83
2022/07/05 06:21:58;;;;;;;;;;;;;;;28.42;40.06;100817.83;105481;1302;61283;-84
2022/07/05 06:24:24;;;;;;;;;;;;;;;28.42;40.03;100819.22;105060;1302;59499;-82
2022/07/05 06:26:49;;;;;;;;;;;;;;;28.41;39.98;100818.44;105231;1303;61414;-82
2022/07/05 06:29:14;;;;;;;;;;;;;;;28.40;39.86;100822.52;104601;1302;598612;-82
2022/07/05 06:31:40;;;;;;;;;;;;;;;28.41;40.08;100826.16;104911;1302;61275;-82
2022/07/05 06:34:05;;;;;;;;;;;;;;;28.42;39.78;100822.14;104938;1301;61143;-82
2022/07/05 06:36:31;;;;;;;;;;;;;;;28.42;39.93;100822.25;105037;1301;61278;-83
2022/07/05 06:38:57;;;;;;;;;;;;;;;28.44;39.77;100815.27;105096;1301;61266;-82
2022/07/05 06:41:22;;;;;;;;;;;;;;;28.46;39.89;100812.02;104950;1302;61404;-82
2022/07/05 06:43:47;;;;;;;;;;;;;;;28.46;39.91;100812.30;104908;1302;61356;-82
2022/07/05 06:46:13;;;;;;;;;;;;;;;28.48;39.79;100814.89;104764;1302;61264;-82
2022/07/05 06:48:39;;;;;;;;;;;;;;;28.49;39.89;100812.79;104995;1302;61396;-82
2022/07/05 06:51:04;;;;;;;;;;;;;;;28.48;39.80;100809.94;105081;1301;63331;-82
2022/07/05 06:53:30;;;;;;;;;;;;;;;28.48;39.54;100812.45;105008;1302;61169;-82
2022/07/05 06:55:55;;;;;;;;;;;;;;;28.49;39.72;100813.44;104883;1302;61224;-82
2022/07/05 06:58:21;;;;;;;;;;;;;;;28.50;39.78;100814.12;105013;1303;61205;-82
2022/07/05 07:00:46;;;;;;;;;;;;;;;28.50;39.88;100817.52;105106;1302;61400;-82
2022/07/05 07:03:11;;;;;;;;;;;;;;;28.51;39.79;100816.59;104996;1302;61310;-82
2022/07/05 07:05:37;;;;;;;;;;;;;;;28.52;39.58;100815.73;104998;1302;61435;-82
2022/07/05 07:10:47;;;;;;;;;;;;;;;28.53;39.92;100810.48;104743;1302;72754;-82
2022/07/05 07:13:13;;;;;;;;;;;;;;;28.54;39.67;100814.96;104937;1302;61415;-81
2022/07/05 07:15:40;;;;;;;;;;;;;;;28.53;39.67;100815.98;104946;1303;61272;-82
2022/07/05 07:18:06;;;;;;;;;;;;;;;28.52;39.36;100814.06;105006;1301;61439;-81
2022/07/05 07:20:31;;;;;;;;;;;;;;;28.52;39.27;100813.56;105018;1303;61315;-81
2022/07/05 07:22:57;;;;;;;;;;;;;;;28.51;39.04;100814.52;104906;1301;61275;-81
2022/07/05 07:25:23;;;;;;;;;;;;;;;28.51;39.35;100813.02;104973;1301;61303;-81
2022/07/05 07:27:53;;;;;;;;;;;;;;;28.52;38.99;100814.59;104882;1302;61179;-81
2022/07/05 07:30:19;;;;;;;;;;;;;;;28.54;39.00;100818.98;104880;1300;61467;-81
2022/07/05 07:32:45;;;;;;;;;;;;;;;28.54;38.86;100817.61;104857;1302;61314;-81
2022/07/05 07:35:10;;;;;;;;;;;;;;;28.55;38.57;100818.44;104973;1302;61305;-81
2022/07/05 07:37:36;;;;;;;;;;;;;;;28.56;38.71;100814.86;105110;1300;61272;-81
2022/07/05 07:40:02;;;;;;;;;;;;;;;28.57;38.58;100810.79;105015;1301;61240;-82
2022/07/05 07:42:28;;;;;;;;;;;;;;;28.58;38.68;100813.43;104828;1302;61425;-81
2022/07/05 07:44:53;;;;;;;;;;;;;;;28.58;38.47;100814.48;104978;1301;61374;-81
2022/07/05 07:47:19;;;;;;;;;;;;;;;28.58;38.42;100810.30;104916;1302;61271;-81
2022/07/05 07:49:45;;;;;;;;;;;;;;;28.59;38.27;100812.05;104998;1303;61220;-81
2022/07/05 07:52:10;;;;;;;;;;;;;;;28.61;38.21;100814.06;104875;1303;61255;-81
2022/07/05 07:54:36;;;;;;;;;;;;;;;28.63;38.39;100810.98;105073;1303;61253;-81
2022/07/05 07:57:04;;;;;;;;;;;;;;;28.65;37.96;100813.89;104917;1302;61243;-81
2022/07/05 07:59:30;;;;;;;;;;;;;;;28.66;38.09;100812.48;105188;1303;61342;-81
2022/07/05 08:01:56;;;;;;;;;;;;;;;28.67;38.11;100810.71;104922;1303;61234;-81
2022/07/05 08:04:21;;;;;;;;;;;;;;;28.68;38.08;100810.09;105014;1302;61352;-81
2022/07/05 08:06:47;;;;;;;;;;;;;;;28.69;38.10;100811.46;105015;1300;61313;-81
2022/07/05 08:09:13;;;;;;;;;;;;;;;28.69;37.83;100811.94;105785;1302;60013;-81
2022/07/05 08:11:38;;;;;;;;;;;;;;;28.70;38.10;100811.71;104912;1302;61256;-81
2022/07/05 08:14:04;;;;;;;;;;;;;;;28.70;37.92;100810.83;104902;1303;61287;-81
2022/07/05 08:16:29;;;;;;;;;;;;;;;28.70;37.73;100810.63;104882;1303;61470;-81
2022/07/05 08:21:39;;;;;;;;;;;;;;;28.70;37.79;100815.52;104942;1302;61428;-81
2022/07/05 08:24:08;;;;;;;;;;;;;;;28.69;37.69;100810.20;104939;1300;62332;-81
2022/07/05 08:26:34;;;;;;;;;;;;;;;28.69;37.66;100810.50;105034;1300;72967;-82
2022/07/05 08:29:03;;;;;;;;;;;;;;;28.69;37.52;100811.56;104983;1300;61333;-81
2022/07/05 08:31:29;;;;;;;;;;;;;;;28.70;37.43;100808.45;105002;1300;61150;-82
2022/07/05 08:33:55;;;;;;;;;;;;;;;28.71;37.44;100809.05;105001;1303;61278;-81
2022/07/05 08:36:20;;;;;;;;;;;;;;;28.73;37.58;100809.98;104987;1303;61287;-81
2022/07/05 08:38:46;;;;;;;;;;;;;;;28.73;37.47;100806.13;105029;1303;62086;-81
2022/07/05 08:41:11;;;;;;;;;;;;;;;28.75;37.30;100808.15;105152;1300;61286;-81
2022/07/05 08:43:40;;;;;;;;;;;;;;;28.76;37.16;100809.60;105132;1299;61426;-81
2022/07/05 08:46:08;;;;;;;;;;;;;;;28.77;37.09;100804.45;105133;1300;61222;-81
2022/07/05 08:48:34;;;;;;;;;;;;;;;28.78;36.87;100802.94;105124;1300;61383;-81
2022/07/05 08:51:00;;;;;;;;;;;;;;;28.78;36.80;100800.18;105055;1302;61377;-82
2022/07/05 08:53:26;;;;;;;;;;;;;;;28.78;36.82;100798.73;105039;1303;61371;-81
2022/07/05 08:55:51;;;;;;;;;;;;;;;28.79;37.10;100797.54;104793;1302;61489;-82
2022/07/05 08:58:17;;;;;;;;;;;;;;;28.80;37.13;100794.59;104991;1303;61266;-82
2022/07/05 09:00:43;;;;;;;;;;;;;;;28.80;37.01;100796.17;104901;1302;61260;-81
2022/07/05 09:03:08;;;;;;;;;;;;;;;28.81;36.97;100788.14;104842;1303;61279;-81
2022/07/05 09:05:39;;;;;;;;;;;;;;;28.82;37.13;100786.00;104796;1302;61303;-81
2022/07/05 09:08:04;;;;;;;;;;;;;;;28.86;36.85;100788.35;104918;1302;74227;-81
2022/07/05 09:10:30;;;;;;;;;;;;;;;28.90;36.80;100788.57;105101;1303;61333;-81
2022/07/05 09:12:56;;;;;;;;;;;;;;;28.92;36.70;100780.64;105168;1303;61338;-81
2022/07/05 09:15:21;;;;;;;;;;;;;;;28.93;36.86;100779.08;105022;1301;61278;-81
2022/07/05 09:17:47;;;;;;;;;;;;;;;28.96;36.89;100782.23;105100;1303;61249;-81
2022/07/05 09:20:16;;;;;;;;;;;;;;;28.99;36.43;100777.02;105043;1303;72966;-82
2022/07/05 09:22:42;;;;;;;;;;;;;;;29.00;36.43;100774.76;105053;1303;75773;-82
2022/07/05 09:25:18;;;;;;;;;;;;;;;29.00;36.47;100769.05;104881;1303;61257;-82
2022/07/05 09:27:48;;;;;;;;;;;;;;;29.01;36.33;100768.61;105017;1303;61284;-81
2022/07/05 09:30:17;;;;;;;;;;;;;;;29.02;36.30;100767.25;105145;1303;72764;-81
2022/07/05 09:32:42;;;;;;;;;;;;;;;29.02;36.27;100768.98;104935;1303;74986;-82
2022/07/05 09:35:20;;;;;;;;;;;;;;;29.03;36.11;100766.83;104837;1302;61316;-82
2022/07/05 09:37:45;;;;;;;;;;;;;;;29.03;36.41;100761.39;104924;1303;61662;-82
2022/07/05 09:40:11;;;;;;;;;;;;;;;29.02;36.21;100763.46;104793;1302;61249;-81
2022/07/05 09:42:36;;;;;;;;;;;;;;;29.03;36.32;100760.77;104941;1303;61282;-82
2022/07/05 09:45:02;;;;;;;;;;;;;;;29.04;36.28;100755.41;104977;1303;61364;-82
2022/07/05 09:47:27;;;;;;;;;;;;;;;29.04;36.20;100754.92;104905;1302;61370;-82
2022/07/05 09:49:54;;;;;;;;;;;;;;;29.03;36.23;100754.77;104689;1302;61587;-82
2022/07/05 09:52:32;;;;;;;;;;;;;;;29.02;36.26;100747.36;104757;1302;61393;-82
2022/07/05 09:55:01;;;;;;;;;;;;;;;29.01;36.33;100743.45;104936;1302;74801;-81
2022/07/05 09:57:27;;;;;;;;;;;;;;;29.01;36.43;100747.75;104961;1303;61278;-81
2022/07/05 10:00:19;;;;;;;;;;;;;;;29.01;36.45;100739.60;104939;1302;61432;-81
2022/07/05 10:02:45;;;;;;;;;;;;;;;29.04;36.24;100735.09;104883;1303;73899;-84
2022/07/05 10:05:13;;;;;;;;;;;;;;;29.07;36.28;100729.91;104890;1302;61299;-84
2022/07/05 10:07:48;;;;;;;;;;;;;;;29.09;36.12;100727.51;104891;1303;61295;-84
2022/07/05 10:10:14;;;;;;;;;;;;;;;29.12;36.05;100731.19;105006;1303;61194;-84
2022/07/05 10:12:44;;;;;;;;;;;;;;;29.13;35.90;100729.52;105068;1300;72961;-84
2022/07/05 10:15:10;;;;;;;;;;;;;;;29.14;35.91;100729.60;105214;1300;75806;-84
2022/07/05 10:17:37;;;;;;;;;;;;;;;29.14;36.13;100729.39;105123;1300;61363;-84
2022/07/05 10:20:04;;;;;;;;;;;;;;;29.13;36.09;100723.51;105150;1300;61474;-82
2022/07/05 10:22:29;;;;;;;;;;;;;;;29.12;35.83;100723.60;105184;1300;74281;-81
2022/07/05 10:24:55;;;;;;;;;;;;;;;29.12;35.89;100723.30;105193;1300;61254;-81
2022/07/05 10:27:21;;;;;;;;;;;;;;;29.11;35.91;100722.66;105135;1300;61157;-81
2022/07/05 10:29:47;;;;;;;;;;;;;;;29.11;36.08;100720.45;105238;1298;61398;-81
2022/07/05 10:32:13;;;;;;;;;;;;;;;29.14;35.99;100716.38;105097;1300;61251;-81
2022/07/05 10:34:38;;;;;;;;;;;;;;;29.17;35.69;100713.66;105169;1303;61277;-82
2022/07/05 10:37:04;;;;;;;;;;;;;;;29.21;35.65;100707.80;105116;1302;61396;-82
2022/07/05 10:39:30;;;;;;;;;;;;;;;29.22;35.82;100700.39;104886;1302;61422;-82
2022/07/05 10:41:55;;;;;;;;;;;;;;;29.23;35.45;100699.75;105116;1302;61578;-82
2022/07/05 10:44:34;;;;;;;;;;;;;;;29.22;35.60;100702.43;105023;1302;61337;-83
2022/07/05 10:47:10;;;;;;;;;;;;;;;29.22;35.53;100698.23;105048;1302;74619;-82
2022/07/05 10:49:36;;;;;;;;;;;;;;;29.24;35.67;100698.58;105015;1302;61245;-82
2022/07/05 10:52:02;;;;;;;;;;;;;;;29.26;35.46;100693.84;105132;1302;61249;-81
2022/07/05 10:54:27;;;;;;;;;;;;;;;29.26;35.69;100692.56;104831;1302;61132;-81
2022/07/05 10:57:26;;;;;;;;;;;;;;;29.26;35.59;100689.33;104927;1302;61284;-81
2022/07/05 11:00:04;;;;;;;;;;;;;;;29.28;35.53;100690.45;104526;1306;61283;-81
2022/07/05 11:02:30;;;;;;;;;;;;;;;29.30;35.46;100689.98;104496;1307;61762;-81
2022/07/05 11:04:55;;;;;;;;;;;;;;;29.30;35.38;100689.34;104415;1306;61310;-81
2022/07/05 11:07:39;;;;;;;;;;;;;;;29.28;35.40;100689.20;104400;1307;61300;-81
2022/07/05 11:10:06;;;;;;;;;;;;;;;29.25;35.49;100685.95;104423;1306;61412;-82
2022/07/05 11:12:37;;;;;;;;;;;;;;;29.24;35.80;100683.20;104561;1306;61452;-82
2022/07/05 11:15:04;;;;;;;;;;;;;;;29.23;35.70;100680.90;104572;1307;73980;-81
2022/07/05 11:17:30;;;;;;;;;;;;;;;29.23;35.60;100676.38;104520;1307;61174;-81
2022/07/05 11:20:01;;;;;;;;;;;;;;;29.22;35.70;100680.08;104611;1306;61294;-81
2022/07/05 11:22:26;;;;;;;;;;;;;;;29.23;35.76;100678.80;104670;1306;61387;-81
2022/07/05 11:24:52;;;;;;;;;;;;;;;29.21;35.70;100677.48;104525;1307;61403;-81
2022/07/05 11:27:17;;;;;;;;;;;;;;;29.21;35.73;100678.11;104455;1307;61301;-82
2022/07/05 11:29:47;;;;;;;;;;;;;;;29.20;35.80;100672.38;104396;1306;61394;-82
2022/07/05 11:32:14;;;;;;;;;;;;;;;29.20;35.86;100666.61;104546;1306;61316;-81
2022/07/05 11:34:43;;;;;;;;;;;;;;;29.19;35.83;100667.36;104618;1306;72953;-81
2022/07/05 11:37:26;;;;;;;;;;;;;;;29.19;35.89;100670.25;105132;1303;74845;-81
2022/07/05 11:40:04;;;;;;;;;;;;;;;29.20;35.85;100663.84;105013;1302;61219;-81
2022/07/05 11:42:30;;;;;;;;;;;;;;;29.21;35.68;100661.05;104952;1302;61172;-81
2022/07/05 11:44:55;;;;;;;;;;;;;;;29.21;35.95;100664.23;104926;1302;62475;-81
2022/07/05 11:47:21;;;;;;;;;;;;;;;29.21;35.84;100664.65;104792;1302;61307;-81
2022/07/05 11:49:56;;;;;;;;;;;;;;;29.21;35.70;100658.52;104884;1303;61489;-81
2022/07/05 11:52:28;;;;;;;;;;;;;;;29.20;35.82;100660.60;104973;1302;61513;-81
2022/07/05 11:54:53;;;;;;;;;;;;;;;29.19;35.86;100661.41;105112;1302;72756;-81
2022/07/05 11:57:19;;;;;;;;;;;;;;;29.19;35.91;100660.32;105031;1302;61759;-81
2022/07/05 11:59:45;;;;;;;;;;;;;;;29.20;36.05;100658.64;105011;1302;61262;-83
2022/07/05 12:02:11;;;;;;;;;;;;;;;29.20;35.81;100659.52;105061;1303;61206;-83
2022/07/05 12:04:36;;;;;;;;;;;;;;;29.20;35.62;100648.27;105090;1302;61239;-83
2022/07/05 12:07:02;;;;;;;;;;;;;;;29.19;35.94;100647.63;105161;1303;61381;-83
2022/07/05 12:12:42;;;;;;;;;;;;;;;29.19;35.85;100640.02;105164;1303;61219;-83
2022/07/05 12:15:00;;;;;;;;;;;;;;;29.19;35.72;100624.63;105026;1302;61352;-83
2022/07/05 12:17:26;;;;;;;;;;;;;;;29.19;35.90;100620.64;105007;1302;61224;-83
2022/07/05 12:19:52;;;;;;;;;;;;;;;29.20;35.83;100615.52;105023;1303;61285;-83
2022/07/05 12:22:27;;;;;;;;;;;;;;;29.20;35.60;100616.71;105160;1302;61261;-83
2022/07/05 12:24:52;;;;;;;;;;;;;;;29.21;35.66;100614.02;105014;1302;61568;-83
2022/07/05 12:27:18;;;;;;;;;;;;;;;29.23;35.58;100613.35;105109;1302;61420;-83
2022/07/05 12:29:43;;;;;;;;;;;;;;;29.24;35.75;100611.95;104901;1303;61387;-83
2022/07/05 12:32:09;;;;;;;;;;;;;;;29.24;35.76;100602.10;105169;1302;61346;-83
2022/07/05 12:34:34;;;;;;;;;;;;;;;29.26;35.58;100598.19;105023;1303;61961;-83
2022/07/05 12:37:00;;;;;;;;;;;;;;;29.26;35.66;100595.98;105017;1303;61183;-83